• Join FlightAware (Why Join?)
  • Login
  • US Flag 
12:35AM EDT


 

Airport Tracker/Info


-or-


 

Live Flight TrackerFlight Track Log ✈ DAL1020 ✈ 16-Jul-2013 ✈ PANC - KMSP

Flight Track Log - Related Links

Times and Time Zones

All times are in EDT time to prevent confusion due to time zone crossing. See the DAL1020 flight status page for this flight to view local times or setup timezone preferences in your user account.

Time Position Orientation Groundspeed Altitude Reporting Facility
EDT Latitude Longitude Course Direction KTS MPH feet Rate Location/Type
06:43PM 61.0186 -149.2114 109° East  Level FlightAware Approximate
06:44PM 60.9654 -148.9561 113° Southeast  Level FlightAware Approximate
06:45PM 60.9154 -148.6985 111° Southeast  Level FlightAware Approximate
06:45PM 61.4000 -149.9500 113° Southeast 300 345 12,900  Level Anchorage Center
06:46PM 60.8666 -148.4403 111° Southeast  Level FlightAware Approximate
06:46PM 61.3833 -149.7667 101° East 350 403 14,200  Level Anchorage Center
06:47PM 60.8168 -148.1833 112° Southeast  Level FlightAware Approximate
06:47PM 61.3500 -149.5333 106° East 410 472 15,500  Level Anchorage Center
06:48PM 60.7655 -147.9279 114° Southeast  Level FlightAware Approximate
06:48PM 61.3167 -149.2833 105° East 440 506 17,100  Level Anchorage Center
06:49PM 60.7109 -147.6759 114° Southeast  Level FlightAware Approximate
06:49PM 61.2833 -149.0333 105° East 450 518 18,600  Level Anchorage Center
06:50PM 60.6566 -147.4240 113° Southeast  Level FlightAware Approximate
06:50PM 61.2500 -148.7833 105° East 470 541 20,200  Level Anchorage Center
06:51PM 61.2167 -148.5000 104° East 490 564 21,500 1,440 Climbing Anchorage Center
06:52PM 61.1667 -148.2333 111° Southeast 500 575 23,100 1,440 Climbing Anchorage Center
06:53PM 61.1167 -147.9500 110° East 510 587 24,500 1,380 Climbing Anchorage Center
06:54PM 61.0833 -147.6500 103° East 520 598 25,900 1,500 Climbing Anchorage Center
06:55PM 61.0333 -147.3667 110° East 510 587 27,600 1,620 Climbing Anchorage Center
06:56PM 60.9833 -147.0833 110° East 520 598 29,200 1,440 Climbing Anchorage Center
06:57PM 60.9333 -146.8000 110° East 520 598 30,600 1,320 Climbing Anchorage Center
06:58PM 60.9000 -146.5167 103° East 510 587 31,900 1,320 Climbing Anchorage Center
06:59PM 60.8500 -146.2333 110° East 510 587 33,300 1,260 Climbing Anchorage Center
07:00PM 60.8000 -145.9667 111° Southeast 510 587 34,500 1,200 Climbing Anchorage Center
07:01PM 60.7500 -145.6833 110° East 500 575 35,700 1,080 Climbing Anchorage Center
07:02PM 60.7000 -145.4167 111° Southeast 500 575 36,700 600 Climbing Anchorage Center
07:03PM 60.6500 -145.1500 111° Southeast 500 575 37,000 120 Climbing Anchorage Center
07:04PM 60.6000 -144.8833 111° Southeast 510 587 37,000  Level Anchorage Center
07:05PM 60.5500 -144.6167 111° Southeast 500 575 37,000  Level Anchorage Center
07:06PM 60.5000 -144.3500 111° Southeast 500 575 37,000  Level Anchorage Center
07:07PM 60.4500 -144.0833 111° Southeast 510 587 37,000  Level Anchorage Center
07:08PM 60.4000 -143.8167 111° Southeast 510 587 37,000  Level Anchorage Center
07:09PM 60.3500 -143.5500 111° Southeast 500 575 37,000  Level Anchorage Center
07:10PM 60.3000 -143.2833 111° Southeast 500 575 37,000  Level Anchorage Center
07:11PM 60.2500 -143.0167 111° Southeast 510 587 37,000  Level Anchorage Center
07:12PM 60.2000 -142.7833 113° Southeast 500 575 37,000  Level Anchorage Center
07:13PM 60.1500 -142.5167 111° Southeast 500 575 37,000  Level Anchorage Center
07:14PM 60.0833 -142.2667 118° Southeast 500 575 37,000  Level Anchorage Center
07:15PM 60.0333 -142.0000 110° East 500 575 37,000  Level Anchorage Center
07:16PM 59.9833 -141.7500 112° Southeast 500 575 37,000  Level Anchorage Center
07:17PM 59.9167 -141.4833 116° Southeast 500 575 37,000  Level Anchorage Center
07:18PM 59.8667 -141.2333 112° Southeast 500 575 37,000  Level Anchorage Center
07:19PM 59.8167 -140.9833 112° Southeast 500 575 37,000  Level Anchorage Center
07:20PM 59.7500 -140.7333 118° Southeast 500 575 37,000  Level Anchorage Center
07:21PM 59.7000 -140.4667 110° East 500 575 37,000  Level Anchorage Center
07:22PM 59.6333 -140.2333 119° Southeast 490 564 37,000  Level Anchorage Center
07:23PM 59.5833 -139.9833 111° Southeast 490 564 37,000  Level Anchorage Center
07:24PM 59.5167 -139.7000 115° Southeast 520 598 37,000  Level Anchorage Center
07:25PM 59.4833 -139.4500 105° East 500 575 37,000  Level Anchorage Center
07:26PM 59.4500 -139.1667 103° East 490 564 37,000  Level Anchorage Center
07:27PM 59.4167 -138.9167 105° East 490 564 37,000  Level Anchorage Center
07:28PM 59.3833 -138.6500 104° East 490 564 37,000  Level Anchorage Center
07:29PM 59.3500 -138.3833 104° East 490 564 37,000  Level Anchorage Center
07:30PM 59.3167 -138.1167 104° East 500 575 37,000  Level Anchorage Center
07:31PM 59.2833 -137.8667 105° East 490 564 37,000  Level Anchorage Center
07:32PM 59.2667 -137.6000 97° East 490 564 37,000  Level Anchorage Center
07:33PM 59.2167 -137.3500 111° Southeast 490 564 37,000  Level Anchorage Center
07:34PM 59.1833 -137.0833 104° East 490 564 37,000  Level Anchorage Center
07:35PM 59.1500 -136.8333 104° East 490 564 37,000  Level Anchorage Center
07:36PM 59.1167 -136.5667 104° East 500 575 37,000  Level Anchorage Center
07:37PM 59.0833 -136.3167 104° East 490 564 37,000  Level Anchorage Center
07:38PM 59.0500 -136.0667 104° East 490 564 37,000  Level Anchorage Center
07:39PM 59.0167 -135.8167 104° East 480 552 37,000  Level Anchorage Center
07:40PM 58.9833 -135.5667 104° East 470 541 37,000  Level Anchorage Center
07:41PM 58.9500 -135.3167 104° East 480 552 37,000  Level Anchorage Center
07:42PM 58.9000 -135.0667 111° Southeast 480 552 37,000  Level Anchorage Center
07:43PM 58.8667 -134.8167 104° East 480 552 37,000  Level Anchorage Center
07:44PM 58.8333 -134.5833 105° East 480 552 37,000  Level Anchorage Center
07:45PM 58.8000 -134.3333 104° East 480 552 37,000  Level Anchorage Center
07:46PM 58.7500 -134.0833 111° Southeast 470 541 37,000  Level Anchorage Center
07:47PM 58.7167 -133.8333 104° East 490 564 37,000  Level Anchorage Center
07:48PM 58.6667 -133.6000 112° Southeast 480 552 37,000  Level Anchorage Center
07:50PM 58.6051 -133.2189 107° East  Level FlightAware Approximate
07:57PM 58.3165 -131.5326 110° East  Level FlightAware Approximate
07:58PM 58.2716 -131.2953 110° East  Level FlightAware Approximate
07:59PM 58.2263 -131.0586 110° East  Level FlightAware Approximate
08:00PM 58.1805 -130.8225 110° East  Level FlightAware Approximate
08:01PM 58.1343 -130.5870 110° East  Level FlightAware Approximate
08:02PM 58.0876 -130.3521 111° Southeast  Level FlightAware Approximate
08:03PM 58.0406 -130.1179 111° Southeast  Level FlightAware Approximate
08:04PM 57.9934 -129.8840 111° Southeast  Level FlightAware Approximate
08:05PM 57.9461 -129.6505 111° Southeast  Level FlightAware Approximate
08:06PM 57.8985 -129.4176 111° Southeast  Level FlightAware Approximate
08:07PM 57.8503 -129.1853 111° Southeast  Level FlightAware Approximate
08:08PM 57.8018 -128.9537 111° Southeast  Level FlightAware Approximate
08:09PM 57.7529 -128.7226 112° Southeast  Level FlightAware Approximate
08:10PM 57.7035 -128.4922 112° Southeast  Level FlightAware Approximate
08:11PM 57.6537 -128.2625 112° Southeast  Level FlightAware Approximate
08:12PM 57.6035 -128.0333 112° Southeast  Level FlightAware Approximate
08:13PM 57.5529 -127.8048 112° Southeast  Level FlightAware Approximate
08:14PM 57.5019 -127.5770 113° Southeast  Level FlightAware Approximate
08:15PM 57.4504 -127.3497 113° Southeast  Level FlightAware Approximate
08:16PM 57.3986 -127.1231 113° Southeast  Level FlightAware Approximate
08:17PM 57.3463 -126.8972 113° Southeast  Level FlightAware Approximate
08:18PM 57.2937 -126.6719 113° Southeast  Level FlightAware Approximate
08:19PM 57.2406 -126.4472 113° Southeast  Level FlightAware Approximate
08:20PM 57.1869 -126.2234 114° Southeast  Level FlightAware Approximate
08:21PM 57.1328 -126.0003 114° Southeast  Level FlightAware Approximate
08:22PM 57.0783 -125.7778 114° Southeast  Level FlightAware Approximate
08:22PM 57.0167 -125.6333 115° Southeast 560 644 37,000  Level Edmonton Center
08:23PM 57.0234 -125.5559 114° Southeast  Level FlightAware Approximate
08:23PM 56.9500 -125.4000 118° Southeast 500 575 37,000  Level Edmonton Center
08:24PM 56.9681 -125.3348 115° Southeast  Level FlightAware Approximate
08:24PM 56.9000 -125.1667 111° Southeast 490 564 37,000  Level Edmonton Center
08:25PM 56.9124 -125.1143 115° Southeast  Level FlightAware Approximate
08:25PM 56.8500 -124.9500 113° Southeast 490 564 37,000  Level Edmonton Center
08:26PM 56.8567 -124.8941 115° Southeast  Level FlightAware Approximate
08:26PM 56.7833 -124.7167 117° Southeast 480 552 37,000  Level Edmonton Center
08:27PM 56.8011 -124.6742 115° Southeast  Level FlightAware Approximate
08:27PM 56.7333 -124.5000 113° Southeast 480 552 37,000  Level Edmonton Center
08:28PM 56.7451 -124.4549 115° Southeast  Level FlightAware Approximate
08:28PM 56.6667 -124.2667 117° Southeast 480 552 37,000  Level Edmonton Center
08:29PM 56.6167 -124.0500 113° Southeast 480 552 37,000  Level Edmonton Center
08:30PM 56.5500 -123.8333 119° Southeast 480 552 37,000 120 Level Edmonton Center
08:31PM 56.5000 -123.6167 113° Southeast 480 552 37,300 600 Climbing Edmonton Center
08:32PM 56.4333 -123.3833 117° Southeast 480 552 38,300 840 Climbing Edmonton Center
08:33PM 56.3833 -123.1667 113° Southeast 480 552 39,000 300 Climbing Edmonton Center
08:34PM 56.3167 -122.9500 119° Southeast 480 552 39,000  Level Edmonton Center
08:35PM 56.2500 -122.7333 119° Southeast 470 541 39,000  Level Edmonton Center
08:36PM 56.2000 -122.5167 112° Southeast 470 541 39,000  Level Edmonton Center
08:37PM 56.1333 -122.3333 123° Southeast 470 541 39,000  Level Edmonton Center
08:38PM 56.0833 -122.1167 112° Southeast 470 541 39,000  Level Edmonton Center
08:39PM 56.0167 -121.9000 119° Southeast 470 541 39,000  Level Edmonton Center
08:40PM 55.9500 -121.6833 119° Southeast 470 541 39,000  Level Edmonton Center
08:41PM 55.9000 -121.4833 114° Southeast 480 552 39,000  Level Edmonton Center
08:42PM 55.8333 -121.2667 119° Southeast 480 552 39,000  Level Edmonton Center
08:43PM 55.7667 -121.0500 119° Southeast 480 552 39,000  Level Edmonton Center
08:44PM 55.7000 -120.8333 119° Southeast 480 552 39,000  Level Edmonton Center
08:45PM 55.6333 -120.6167 119° Southeast 490 564 39,000  Level Edmonton Center
08:46PM 55.5667 -120.4167 120° Southeast 490 564 39,000  Level Edmonton Center
08:47PM 55.5167 -120.2000 112° Southeast 490 564 39,000  Level Edmonton Center
08:48PM 55.4333 -120.0000 126° Southeast 490 564 39,000  Level Edmonton Center
08:49PM 55.3833 -119.7833 112° Southeast 490 564 39,000  Level Edmonton Center
08:50PM 55.3000 -119.5500 122° Southeast 490 564 39,000  Level Edmonton Center
08:51PM 55.2500 -119.3333 112° Southeast 490 564 39,000  Level Edmonton Center
08:52PM 55.1667 -119.1333 126° Southeast 500 575 39,000  Level Edmonton Center
08:53PM 55.1000 -118.9333 120° Southeast 490 564 39,000  Level Edmonton Center
08:54PM 55.0167 -118.7167 124° Southeast 490 564 39,000  Level Edmonton Center
08:55PM 54.9500 -118.5167 120° Southeast 500 575 39,000  Level Edmonton Center
08:56PM 54.8833 -118.3167 120° Southeast 500 575 39,000  Level Edmonton Center
08:57PM 54.8000 -118.1000 124° Southeast 500 575 39,000  Level Edmonton Center
08:58PM 54.7333 -117.9000 120° Southeast 500 575 39,000  Level Edmonton Center
08:59PM 54.6667 -117.7000 120° Southeast 500 575 39,000  Level Edmonton Center
09:00PM 54.5833 -117.5000 126° Southeast 500 575 39,000  Level Edmonton Center
09:01PM 54.5167 -117.3000 120° Southeast 500 575 39,000  Level Edmonton Center
09:02PM 54.4333 -117.0667 121° Southeast 500 575 39,000  Level Edmonton Center
09:03PM 54.3500 -116.8833 128° Southeast 510 587 39,000  Level Edmonton Center
09:04PM 54.2667 -116.6667 123° Southeast 510 587 39,000  Level Edmonton Center
09:05PM 54.2000 -116.4667 120° Southeast 510 587 39,000  Level Edmonton Center
09:06PM 54.1167 -116.2667 125° Southeast 510 587 39,000  Level Edmonton Center
09:07PM 54.0333 -116.0333 121° Southeast 510 587 39,000  Level Edmonton Center
09:08PM 53.9500 -115.8500 128° Southeast 510 587 39,000  Level Edmonton Center
09:09PM 53.8667 -115.6500 125° Southeast 510 587 39,000  Level Edmonton Center
09:10PM 53.7833 -115.4500 125° Southeast 510 587 39,000  Level Edmonton Center
09:11PM 53.7167 -115.2667 122° Southeast 510 587 39,000  Level Edmonton Center
09:12PM 53.6333 -115.0333 121° Southeast 510 587 39,000  Level Edmonton Center
09:13PM 53.5500 -114.8500 127° Southeast 510 587 39,000  Level Edmonton Center
09:14PM 53.4667 -114.6500 125° Southeast 510 587 39,000  Level Edmonton Center
09:15PM 53.3833 -114.4333 123° Southeast 520 598 39,000  Level Edmonton Center
09:16PM 53.3000 -114.2333 125° Southeast 520 598 39,000  Level Edmonton Center
09:17PM 53.2333 -114.0500 121° Southeast 520 598 39,000  Level Edmonton Center
09:18PM 53.1333 -113.8333 128° Southeast 520 598 39,000  Level Edmonton Center
09:19PM 53.1000 -113.6000 103° East 530 610 39,000  Level Edmonton Center
09:20PM 53.0333 -113.3667 115° Southeast 530 610 39,000  Level Edmonton Center
09:21PM 52.9833 -113.1500 111° Southeast 530 610 39,000  Level Edmonton Center
09:22PM 52.9167 -112.8833 112° Southeast 530 610 39,000  Level Edmonton Center
09:23PM 52.8667 -112.6833 112° Southeast 530 610 39,000  Level Edmonton Center
09:24PM 52.8167 -112.4500 109° East 540 621 39,000  Level Edmonton Center
09:25PM 52.7667 -112.2167 109° East 540 621 39,000  Level Edmonton Center
09:26PM 52.7167 -111.9833 109° East 540 621 39,000  Level Edmonton Center
09:27PM 52.6333 -111.7333 119° Southeast 540 621 39,000  Level Edmonton Center
09:28PM 52.5833 -111.5000 109° East 540 621 39,000  Level Edmonton Center
09:29PM 52.5333 -111.2833 111° Southeast 540 621 39,000  Level Edmonton Center
09:30PM 52.4833 -111.0500 109° East 540 621 39,000  Level Edmonton Center
09:31PM 52.4000 -110.8333 122° Southeast 540 621 39,000  Level Edmonton Center
09:32PM 52.3500 -110.5833 108° East 540 621 39,000  Level Edmonton Center
09:33PM 52.2833 -110.3833 119° Southeast 540 621 39,000  Level Edmonton Center
09:34PM 52.2167 -110.1167 112° Southeast 540 621 39,000  Level Edmonton Center
09:35PM 52.1667 -109.9167 112° Southeast 540 621 39,000  Level Edmonton Center
09:36PM 52.1000 -109.6667 113° Southeast 540 621 39,000  Level Edmonton Center
09:37PM 52.0667 -109.5333 112° Southeast 540 621 39,000  Level Winnipeg Center
09:38PM 51.9833 -109.2500 115° Southeast 530 610 39,000  Level Edmonton Center
09:39PM 51.9333 -109.0833 116° Southeast 540 621 39,000  Level Winnipeg Center
09:40PM 51.8667 -108.8833 118° Southeast 540 621 39,000  Level Winnipeg Center
09:41PM 51.8167 -108.6500 109° East 540 621 39,000  Level Winnipeg Center
09:42PM 51.7500 -108.4333 116° Southeast 540 621 39,000  Level Winnipeg Center
09:43PM 51.6833 -108.2000 115° Southeast 540 621 39,000  Level Winnipeg Center
09:44PM 51.6167 -108.0000 118° Southeast 540 621 39,000  Level Winnipeg Center
09:45PM 51.5500 -107.7667 115° Southeast 540 621 39,000  Level Winnipeg Center
09:46PM 51.4833 -107.5500 116° Southeast 550 633 39,000  Level Winnipeg Center
09:47PM 51.4333 -107.3333 110° East 550 633 39,000  Level Winnipeg Center
09:48PM 51.3667 -107.1167 116° Southeast 540 621 39,000  Level Winnipeg Center
09:49PM 51.3000 -106.8833 114° Southeast 540 621 39,000  Level Winnipeg Center
09:50PM 51.2333 -106.6833 118° Southeast 540 621 39,000  Level Winnipeg Center
09:51PM 51.1500 -106.4500 120° Southeast 540 621 39,000  Level Winnipeg Center
09:53PM 51.0333 -106.0500 115° Southeast 540 621 39,000  Level Winnipeg Center
09:54PM 50.9500 -105.8333 121° Southeast 540 621 39,000  Level Winnipeg Center
09:55PM 50.9000 -105.6333 112° Southeast 540 621 39,000  Level Winnipeg Center
09:56PM 50.8167 -105.4000 119° Southeast 540 621 39,000  Level Winnipeg Center
09:57PM 50.7333 -105.2000 123° Southeast 540 621 39,000  Level Winnipeg Center
09:58PM 50.6667 -104.9833 116° Southeast 540 621 39,000  Level Winnipeg Center
09:59PM 50.6000 -104.7833 118° Southeast 530 610 39,000  Level Winnipeg Center
10:00PM 50.5333 -104.6167 122° Southeast 530 610 39,000  Level Winnipeg Center
10:01PM 50.4500 -104.3833 119° Southeast 540 621 39,000  Level Winnipeg Center
10:02PM 50.3500 -104.2167 133° Southeast 530 610 39,000  Level Winnipeg Center
10:03PM 50.2833 -104.0167 117° Southeast 520 598 39,000  Level Winnipeg Center
10:04PM 50.2000 -103.8167 123° Southeast 520 598 39,000  Level Winnipeg Center
10:05PM 50.1167 -103.6500 128° Southeast 520 598 39,000  Level Winnipeg Center
10:06PM 50.0333 -103.4500 123° Southeast 520 598 39,000  Level Winnipeg Center
10:07PM 49.9333 -103.2667 130° Southeast 520 598 39,000  Level Winnipeg Center
10:08PM 49.8667 -103.0667 117° Southeast 520 598 39,000  Level Winnipeg Center
10:09PM 49.7833 -102.9000 128° Southeast 520 598 39,000  Level Winnipeg Center
10:10PM 49.7000 -102.7167 125° Southeast 520 598 39,000  Level Winnipeg Center
10:11PM 49.6167 -102.5167 123° Southeast 520 598 39,000  Level Winnipeg Center
10:12PM 49.5333 -102.3500 128° Southeast 520 598 39,000  Level Winnipeg Center
10:13PM 49.4500 -102.1667 125° Southeast 520 598 39,000  Level Winnipeg Center
10:14PM 49.3667 -102.0000 127° Southeast 520 598 39,000  Level Winnipeg Center
10:15PM 49.2833 -101.8167 125° Southeast 520 598 39,000  Level Winnipeg Center
10:16PM 49.2000 -101.6333 125° Southeast 510 587 39,000  Level Winnipeg Center
10:17PM 49.1167 -101.4333 122° Southeast 510 587 39,000  Level Winnipeg Center
10:18PM 49.0500 -101.2500 119° Southeast 520 598 39,000  Level Winnipeg Center
10:19PM 48.9833 -101.0667 119° Southeast 520 598 39,000  Level Winnipeg Center
10:20PM 48.9167 -100.8833 119° Southeast 520 598 39,000  Level Winnipeg Center
10:21PM 48.8333 -100.7000 125° Southeast 510 587 39,000  Level Winnipeg Center
10:22PM 48.7500 -100.5000 122° Southeast 510 587 39,000  Level Winnipeg Center
10:23PM 48.7000 -100.3167 112° Southeast 510 587 39,000  Level Winnipeg Center
10:24PM 48.6119 -100.0858 120° Southeast 513 590 39,000  Level Minneapolis Center
10:25PM 48.5381 -99.9028 121° Southeast 512 589 39,000  Level Minneapolis Center
10:27PM 48.4658 -99.7194 121° Southeast 510 587 39,000  Level Minneapolis Center
10:28PM 48.4072 -99.5747 121° Southeast 509 586 39,000  Level Minneapolis Center
10:29PM 48.3044 -99.3206 121° Southeast 509 586 39,000  Level Minneapolis Center
10:30PM 48.2311 -99.1408 121° Southeast 507 583 39,000  Level Minneapolis Center
10:31PM 48.1447 -98.9239 121° Southeast 508 585 39,000  Level Minneapolis Center
10:32PM 48.0856 -98.7803 122° Southeast 508 585 39,000  Level Minneapolis Center
10:33PM 47.9964 -98.5700 122° Southeast 504 580 39,000  Level Minneapolis Center
10:34PM 47.9211 -98.3942 123° Southeast 503 579 39,000  Level Minneapolis Center
10:35PM 47.8472 -98.2186 122° Southeast 502 578 39,000  Level Minneapolis Center
10:36PM 47.7572 -98.0075 122° Southeast 502 578 39,000  Level Minneapolis Center
10:37PM 47.6828 -97.8308 122° Southeast 499 574 39,000  Level Minneapolis Center
10:38PM 47.6047 -97.6514 123° Southeast 503 579 39,000  Level Minneapolis Center
10:39PM 47.5275 -97.4772 123° Southeast 503 579 39,000  Level Minneapolis Center
10:40PM 47.4522 -97.3058 123° Southeast 497 572 39,000  Level Minneapolis Center
10:41PM 47.3775 -97.1350 123° Southeast 497 572 39,000  Level Minneapolis Center
10:42PM 47.3014 -96.9661 124° Southeast 496 571 39,000  Level Minneapolis Center
10:43PM 47.2272 -96.7975 123° Southeast 491 565 39,000  Level Minneapolis Center
10:44PM 47.1672 -96.6644 124° Southeast 491 565 39,000  Level Minneapolis Center
10:45PM 47.0758 -96.4633 124° Southeast 492 566 39,000  Level Minneapolis Center
10:46PM 46.9997 -96.2961 124° Southeast 494 568 39,000  Level Minneapolis Center
10:47PM 46.9081 -96.0969 124° Southeast 493 567 39,000  Level Minneapolis Center
10:48PM 46.8442 -95.9611 124° Southeast 492 566 39,000  Level Minneapolis Center
10:49PM 46.7519 -95.7608 124° Southeast 495 570 39,000  Level Minneapolis Center
10:50PM 46.6781 -95.6022 124° Southeast 491 565 39,000  Level Minneapolis Center
10:51PM 46.6017 -95.4375 124° Southeast 483 556 39,000  Level Minneapolis Center
10:52PM 46.5247 -95.2769 125° Southeast 486 559 39,000  Level Minneapolis Center
10:53PM 46.4492 -95.1194 125° Southeast 480 552 39,000 -240 Level Minneapolis Center
10:54PM 46.3736 -94.9611 125° Southeast 479 551 38,600 -1,200 Descending Minneapolis Center
10:55PM 46.2975 -94.8025 125° Southeast 482 555 36,600 -2,880 Descending Minneapolis Center
10:56PM 46.2042 -94.6108 125° Southeast 488 562 32,800 -3,600 Descending Minneapolis Center
10:57PM 46.1264 -94.4514 125° Southeast 496 571 29,300 -3,720 Descending Minneapolis Center
10:58PM 46.0444 -94.2853 125° Southeast 505 581 25,200 -3,480 Descending Minneapolis Center
11:00PM 45.9639 -94.1225 125° Southeast 502 578 22,100 -3,000 Descending Minneapolis Center
11:01PM 45.8875 -93.9669 125° Southeast 488 562 19,000 -3,000 Descending Minneapolis Center
11:02PM 45.8025 -93.7894 124° Southeast 466 536 16,000 -2,880 Descending Minneapolis Center
11:03PM 45.7175 -93.6789 138° Southeast 422 486 13,100 -2,220 Descending Minneapolis Center
11:04PM 45.6158 -93.6236 159° South 389 448 11,500 -1,020 Descending Minneapolis Center
11:05PM 45.5208 -93.5742 160° South 365 420 11,100 -180 Descending Minneapolis Center
11:06PM 45.4244 -93.5253 160° South 367 422 11,100 -420 Level Minneapolis Center
11:07PM 45.3233 -93.5056 172° South 303 349 10,200 -1,260 Descending Minneapolis Center
11:08PM 45.2467 -93.4864 170° South 280 322 8,500 -1,500 Descending Minneapolis Center
11:09PM 45.1728 -93.4656 169° South 272 313 7,200 -1,200 Descending Minneapolis Center
11:10PM 45.0956 -93.4436 169° South 228 262 6,100 -1,320 Descending Minneapolis Center
11:11PM 45.0339 -93.4253 168° South 225 259 4,500 -1,620 Descending Minneapolis Center